Time;durP1;ratioP1;P1;durP2;ratioP2;P2;SDS_P1;SDS_P2;PMS_P1;PMS_P2;Temp;Humidity;BMP_temperature;BMP_pressure;BME280_temperature;BME280_humidity;BME280_pressure;Samples;Min_cycle;Max_cycle;Signal;HPM_P1;HPM_P2
2021/05/26 10:05:18;;;;;;;1.20;1.10;;;17.80;99.90;;;;;;5092117;27;20604;-76
2021/05/26 10:07:45;;;;;;;1.65;0.88;;;18.10;99.90;;;;;;5086506;28;20295;-76
2021/05/26 10:10:13;;;;;;;1.10;0.80;;;18.40;99.90;;;;;;5093207;28;20281;-76
2021/05/26 10:12:40;;;;;;;0.95;0.90;;;18.80;99.90;;;;;;5086929;28;20667;-76
2021/05/26 10:15:09;;;;;;;5.25;0.95;;;19.10;99.90;;;;;;5089561;28;20659;-77
2021/05/26 10:17:37;;;;;;;0.80;0.65;;;19.50;99.90;;;;;;5092878;28;20204;-76
2021/05/26 10:20:06;;;;;;;1.55;1.45;;;19.40;99.90;;;;;;5098609;28;20194;-76
2021/05/26 10:22:37;;;;;;;1.65;1.13;;;19.30;99.90;;;;;;5092030;28;20218;-76
2021/05/26 10:25:06;;;;;;;1.55;1.10;;;19.00;99.90;;;;;;5090152;28;20206;-76
2021/05/26 10:27:34;;;;;;;0.82;0.82;;;18.60;99.90;;;;;;5086838;28;20199;-77
2021/05/26 10:30:02;;;;;;;1.92;1.20;;;18.50;99.90;;;;;;5078890;28;20196;-76
2021/05/26 10:32:32;;;;;;;1.80;1.60;;;18.40;99.90;;;;;;5085826;28;20226;-76
2021/05/26 10:35:09;;;;;;;1.30;1.08;;;18.60;99.90;;;;;;5086589;28;20214;-76
2021/05/26 10:37:38;;;;;;;1.20;1.10;;;18.60;99.90;;;;;;5089073;28;20213;-76
2021/05/26 10:40:32;;;;;;;2.80;1.27;;;18.40;99.90;;;;;;5092133;28;20207;-76
2021/05/26 10:43:25;;;;;;;1.83;1.67;;;18.20;99.90;;;;;;5083927;28;20266;-76
2021/05/26 10:45:54;;;;;;;3.97;1.10;;;17.90;99.90;;;;;;5080201;28;20200;-76
2021/05/26 10:49:02;;;;;;;1.95;1.30;;;18.10;99.90;;;;;;5089130;28;20205;-76
2021/05/26 10:52:06;;;;;;;1.27;1.17;;;18.40;99.90;;;;;;5075540;28;20205;-76
2021/05/26 10:55:11;;;;;;;1.15;1.00;;;18.40;99.90;;;;;;5084829;28;22251;-76
2021/05/26 10:58:11;;;;;;;1.25;1.20;;;18.60;99.90;;;;;;5052168;28;20201;-77
2021/05/26 11:00:38;;;;;;;1.40;0.90;;;18.50;99.90;;;;;;5090720;28;20504;-77
2021/05/26 11:03:41;;;;;;;0.95;0.85;;;18.20;99.90;;;;;;5089461;28;20492;-77
2021/05/26 11:06:38;;;;;;;1.30;1.20;;;17.90;99.90;;;;;;5089032;28;20207;-76
2021/05/26 11:09:08;;;;;;;1.33;1.23;;;17.80;99.90;;;;;;5080300;28;20203;-76
2021/05/26 11:12:06;;;;;;;1.10;1.00;;;17.80;99.90;;;;;;5084868;28;21144;-76
2021/05/26 11:14:34;;;;;;;1.85;1.10;;;17.80;99.90;;;;;;5069811;28;20242;-76
2021/05/26 11:17:25;;;;;;;1.77;1.52;;;17.60;99.90;;;;;;5076925;28;20291;-76
2021/05/26 11:20:05;;;;;;;11.23;7.43;;;17.50;99.90;;;;;;5084367;28;20228;-76
2021/05/26 11:22:32;;;;;;;1.10;1.00;;;17.50;99.90;;;;;;5078828;28;20227;-76
2021/05/26 11:24:58;;;;;;;1.15;1.15;;;17.40;99.90;;;;;;5066403;28;20211;-76
2021/05/26 11:27:26;;;;;;;1.30;1.20;;;17.30;99.90;;;;;;5073043;28;20218;-76
2021/05/26 11:29:55;;;;;;;3.80;1.30;;;17.20;99.90;;;;;;5077235;28;20213;-76
2021/05/26 11:32:23;;;;;;;1.70;1.60;;;17.30;99.90;;;;;;5077472;28;20198;-76
2021/05/26 11:34:51;;;;;;;1.17;1.13;;;17.30;99.90;;;;;;5065531;28;20230;-77
2021/05/26 11:37:27;;;;;;;1.00;0.90;;;17.40;99.90;;;;;;5071576;28;20556;-76
2021/05/26 11:39:54;;;;;;;1.70;1.02;;;17.40;99.90;;;;;;5075199;28;20198;-76
2021/05/26 11:42:22;;;;;;;1.67;1.40;;;17.30;99.90;;;;;;5072645;28;20210;-76
2021/05/26 11:44:58;;;;;;;1.40;1.30;;;17.30;99.90;;;;;;5077314;28;20653;-76
2021/05/26 11:47:32;;;;;;;1.48;1.35;;;17.10;99.90;;;;;;5067336;28;20225;-76
2021/05/26 11:49:59;;;;;;;1.20;1.10;;;17.10;99.90;;;;;;5075870;28;20195;-76
2021/05/26 11:52:26;;;;;;;1.75;1.58;;;17.10;99.90;;;;;;5077077;28;20210;-76
2021/05/26 11:54:54;;;;;;;1.25;1.08;;;17.10;99.90;;;;;;5069448;28;20238;-76
2021/05/26 12:00:28;;;;;;;4.20;1.20;;;17.00;99.90;;;;;;5056315;28;20222;-76
2021/05/26 12:02:58;;;;;;;1.65;1.55;;;17.00;99.90;;;;;;5073115;28;20629;-76
2021/05/26 12:05:41;;;;;;;2.33;2.13;;;17.00;99.90;;;;;;5080315;28;20301;-76
2021/05/26 12:08:15;;;;;;;5.25;1.55;;;17.00;99.90;;;;;;5074983;28;20206;-76
2021/05/26 12:10:46;;;;;;;6.10;1.90;;;16.80;99.90;;;;;;5075306;28;20199;-77
2021/05/26 12:13:13;;;;;;;2.97;1.98;;;16.70;99.90;;;;;;5066623;28;20223;-78
2021/05/26 12:15:48;;;;;;;1.75;1.63;;;16.60;99.90;;;;;;5072349;28;20210;-77
2021/05/26 12:18:15;;;;;;;3.08;1.77;;;16.60;99.90;;;;;;5070983;28;20213;-77
2021/05/26 12:20:46;;;;;;;5.05;2.10;;;16.70;99.90;;;;;;5071512;28;20213;-77
2021/05/26 12:23:13;;;;;;;2.25;2.05;;;16.70;99.90;;;;;;5076374;28;20270;-76
2021/05/26 12:25:42;;;;;;;2.95;2.50;;;16.30;99.90;;;;;;5074443;28;20202;-76
2021/05/26 12:28:19;;;;;;;2.53;2.33;;;16.10;99.90;;;;;;5080743;28;20760;-76
2021/05/26 12:30:49;;;;;;;4.03;2.50;;;16.00;99.90;;;;;;5069170;28;20205;-77
2021/05/26 12:33:18;;;;;;;2.58;2.10;;;16.00;99.90;;;;;;5059216;28;20287;-76
2021/05/26 12:35:45;;;;;;;3.58;2.90;;;16.10;99.90;;;;;;5071148;28;20226;-76
2021/05/26 12:38:19;;;;;;;2.60;2.40;;;16.10;99.90;;;;;;5069463;28;20211;-76
2021/05/26 12:40:46;;;;;;;3.40;2.20;;;16.20;99.90;;;;;;5070309;28;20317;-76
2021/05/26 12:43:26;;;;;;;2.47;2.28;;;16.40;99.90;;;;;;5074894;28;20206;-77
2021/05/26 12:46:32;;;;;;;3.45;2.72;;;16.50;99.90;;;;;;5069553;28;20272;-76
2021/05/26 12:48:59;;;;;;;6.93;4.20;;;16.60;99.90;;;;;;5077995;28;20213;-77
2021/05/26 12:51:26;;;;;;;3.65;3.13;;;16.60;99.90;;;;;;5069456;28;20618;-76
2021/05/26 12:53:58;;;;;;;6.53;3.42;;;16.60;99.90;;;;;;5075823;28;20239;-76
2021/05/26 12:56:26;;;;;;;4.93;2.97;;;16.50;99.90;;;;;;5070510;28;20211;-76
2021/05/26 12:58:52;;;;;;;6.30;3.30;;;16.60;99.90;;;;;;5075457;28;20206;-76
2021/05/26 13:01:27;;;;;;;5.25;2.58;;;16.70;99.90;;;;;;5064832;28;20196;-76
2021/05/26 13:03:54;;;;;;;3.88;2.20;;;16.60;99.90;;;;;;5066440;28;20242;-77
2021/05/26 13:06:20;;;;;;;3.53;3.05;;;16.70;99.90;;;;;;5069360;28;20203;-77
2021/05/26 13:08:58;;;;;;;3.45;1.98;;;16.80;99.90;;;;;;5070166;28;20202;-76
2021/05/26 13:11:41;;;;;;;2.95;2.60;;;16.80;99.90;;;;;;5068907;28;20220;-76
2021/05/26 13:14:11;;;;;;;4.18;3.20;;;16.90;99.90;;;;;;5076140;28;20223;-77
2021/05/26 13:16:42;;;;;;;3.72;3.10;;;17.00;99.90;;;;;;5080861;28;20221;-76
2021/05/26 13:19:09;;;;;;;3.80;3.10;;;17.10;99.90;;;;;;5077469;28;20261;-76
2021/05/26 13:21:44;;;;;;;3.65;3.35;;;17.10;99.90;;;;;;5071341;28;20197;-76
2021/05/26 13:24:10;;;;;;;5.05;3.25;;;17.00;99.90;;;;;;5075547;28;20209;-76
2021/05/26 13:26:37;;;;;;;3.25;2.95;;;16.90;99.90;;;;;;5077204;28;20209;-76
2021/05/26 13:29:03;;;;;;;3.15;2.85;;;17.00;99.90;;;;;;5068268;28;20680;-77
2021/05/26 13:34:26;;;;;;;4.95;3.40;;;17.10;99.90;;;;;;5067500;28;20277;-77
2021/05/26 13:36:53;;;;;;;5.10;3.90;;;16.80;99.90;;;;;;5069229;28;20260;-77
2021/05/26 13:39:20;;;;;;;5.38;4.88;;;16.60;99.90;;;;;;5069520;28;20285;-77
2021/05/26 13:41:47;;;;;;;7.95;5.35;;;16.10;99.90;;;;;;5067065;28;20201;-77
2021/05/26 13:44:13;;;;;;;12.32;5.60;;;15.70;99.90;;;;;;5066841;28;20210;-77
2021/05/26 13:46:40;;;;;;;14.15;5.82;;;15.40;99.90;;;;;;5069619;28;20206;-77
2021/05/26 13:49:06;;;;;;;9.93;5.68;;;15.10;99.90;;;;;;5070196;28;20213;-76
2021/05/26 13:51:34;;;;;;;8.65;6.13;;;14.90;99.90;;;;;;5074093;28;20205;-76
2021/05/26 13:54:00;;;;;;;6.45;5.80;;;14.80;99.90;;;;;;5071295;28;20261;-76
2021/05/26 13:56:27;;;;;;;6.25;5.57;;;14.70;99.90;;;;;;5070071;28;20198;-76
2021/05/26 13:58:54;;;;;;;5.47;4.78;;;14.60;99.90;;;;;;5065449;28;20216;-76
2021/05/26 14:01:20;;;;;;;7.57;5.60;;;14.50;99.90;;;;;;5064402;28;20708;-76
2021/05/26 14:03:47;;;;;;;6.45;5.63;;;14.40;99.90;;;;;;5079264;28;20320;-77
2021/05/26 14:06:13;;;;;;;9.57;6.10;;;14.40;99.90;;;;;;5071790;28;20565;-77
2021/05/26 14:08:42;;;;;;;8.32;5.90;;;14.30;99.90;;;;;;5069645;28;20662;-76
2021/05/26 14:11:10;;;;;;;8.75;5.43;;;14.20;99.90;;;;;;5075592;28;20597;-76
2021/05/26 14:13:38;;;;;;;7.90;5.47;;;14.20;99.90;;;;;;5067499;28;20266;-76
2021/05/26 14:16:06;;;;;;;5.15;4.65;;;14.10;99.90;;;;;;5079197;28;20301;-76
2021/05/26 14:18:34;;;;;;;12.15;9.10;;;14.10;99.90;;;;;;5070871;28;20228;-76
2021/05/26 14:21:02;;;;;;;7.88;6.30;;;14.20;99.90;;;;;;5073151;28;20231;-76
2021/05/26 14:23:28;;;;;;;11.38;5.63;;;14.40;99.90;;;;;;5073600;28;20265;-76
2021/05/26 14:25:57;;;;;;;5.93;4.65;;;14.50;99.90;;;;;;5036902;28;20230;-76
2021/05/26 14:28:24;;;;;;;11.68;4.68;;;14.60;99.90;;;;;;5068890;28;20207;-76
2021/05/26 14:30:53;;;;;;;7.85;4.68;;;14.60;99.90;;;;;;5064952;28;20232;-76
2021/05/26 14:33:21;;;;;;;6.43;5.07;;;14.70;99.90;;;;;;5064457;28;20633;-77
2021/05/26 14:35:48;;;;;;;7.38;6.20;;;14.70;99.90;;;;;;5077638;28;20211;-77
2021/05/26 14:38:29;;;;;;;8.95;6.57;;;14.70;99.90;;;;;;5072879;28;20563;-77
2021/05/26 14:40:59;;;;;;;9.45;6.38;;;14.90;99.90;;;;;;5073798;28;20203;-77
2021/05/26 14:43:27;;;;;;;11.45;6.00;;;14.90;99.90;;;;;;5071211;28;20820;-77
2021/05/26 14:45:55;;;;;;;16.30;7.18;;;14.90;99.90;;;;;;5067934;28;20249;-77
2021/05/26 14:48:25;;;;;;;11.45;7.65;;;15.00;99.90;;;;;;5073344;28;20234;-77
2021/05/26 14:50:52;;;;;;;12.57;8.35;;;15.10;99.90;;;;;;5073874;28;20200;-77
2021/05/26 14:53:18;;;;;;;16.85;10.10;;;15.10;99.90;;;;;;5077494;28;20225;-76
2021/05/26 14:55:45;;;;;;;18.45;10.25;;;15.20;99.90;;;;;;5073915;28;20205;-77
2021/05/26 14:58:13;;;;;;;16.13;8.63;;;15.20;99.90;;;;;;5069564;28;20216;-77
2021/05/26 15:06:01;;;;;;;12.32;7.07;;;15.40;99.90;;;;;;5062914;28;20213;-77
2021/05/26 15:08:28;;;;;;;7.97;6.30;;;15.40;99.90;;;;;;5082847;28;20208;-77
2021/05/26 15:10:57;;;;;;;11.50;6.72;;;15.40;99.90;;;;;;5066905;28;20210;-77
2021/05/26 15:13:24;;;;;;;12.95;7.20;;;15.50;99.90;;;;;;5083519;28;20282;-77
2021/05/26 15:15:51;;;;;;;7.95;6.38;;;15.50;99.90;;;;;;5070925;28;20203;-77
2021/05/26 15:18:19;;;;;;;12.00;7.00;;;15.60;99.90;;;;;;5073208;28;20203;-77
2021/05/26 15:20:46;;;;;;;10.68;7.68;;;15.60;99.90;;;;;;5081696;28;20214;-77
2021/05/26 15:23:13;;;;;;;11.75;6.65;;;15.70;99.90;;;;;;5072700;28;20212;-77
2021/05/26 15:25:41;;;;;;;11.40;6.88;;;15.80;99.90;;;;;;5059173;28;20215;-77
2021/05/26 15:28:08;;;;;;;7.10;6.25;;;15.80;99.90;;;;;;5083130;28;20207;-77
2021/05/26 15:30:35;;;;;;;8.52;5.38;;;15.80;99.90;;;;;;5075781;28;20199;-77
2021/05/26 15:33:02;;;;;;;4.00;3.60;;;15.80;99.90;;;;;;5080055;28;20210;-77
2021/05/26 15:35:29;;;;;;;5.60;2.83;;;15.80;99.90;;;;;;5077736;28;20274;-77
2021/05/26 15:37:55;;;;;;;2.55;1.95;;;15.70;99.90;;;;;;5084331;28;20207;-77
2021/05/26 15:40:22;;;;;;;1.80;1.58;;;15.70;99.90;;;;;;5078610;28;20232;-77
2021/05/26 15:42:49;;;;;;;4.32;1.35;;;15.60;99.90;;;;;;5082589;28;20633;-77
2021/05/26 15:45:15;;;;;;;3.67;1.60;;;15.50;99.90;;;;;;5075926;28;20673;-77
2021/05/26 15:47:42;;;;;;;1.40;1.30;;;15.50;99.90;;;;;;5072329;28;20212;-78
2021/05/26 15:50:10;;;;;;;1.23;1.20;;;15.60;99.90;;;;;;5078729;28;20212;-77
2021/05/26 15:52:37;;;;;;;1.60;1.48;;;15.70;99.90;;;;;;5067306;28;20200;-77
2021/05/26 15:55:06;;;;;;;1.58;1.48;;;15.70;99.90;;;;;;5076752;28;20240;-77
2021/05/26 15:57:34;;;;;;;1.85;1.75;;;15.60;99.90;;;;;;5066343;28;20206;-77
2021/05/26 16:00:04;;;;;;;1.65;1.60;;;15.60;99.90;;;;;;5074423;28;20205;-77
2021/05/26 16:02:31;;;;;;;2.15;2.03;;;15.60;99.90;;;;;;5077296;28;20199;-77
2021/05/26 16:04:59;;;;;;;2.08;1.98;;;15.50;99.90;;;;;;5076366;28;20252;-76
2021/05/26 16:07:25;;;;;;;2.47;2.10;;;15.40;99.90;;;;;;5067182;28;20214;-77
2021/05/26 16:09:52;;;;;;;4.05;2.20;;;15.40;99.90;;;;;;5069198;28;20192;-76
2021/05/26 16:12:19;;;;;;;2.72;2.50;;;15.30;99.90;;;;;;5076216;28;20210;-77
2021/05/26 16:14:46;;;;;;;3.42;2.58;;;15.20;99.90;;;;;;5077102;28;20279;-77
2021/05/26 16:17:13;;;;;;;23.35;14.35;;;15.20;99.90;;;;;;5083222;28;20203;-77
2021/05/26 16:19:39;;;;;;;57.22;34.95;;;15.30;99.90;;;;;;5068063;28;20230;-78
2021/05/26 16:22:07;;;;;;;5.60;3.55;;;15.40;99.90;;;;;;5076159;28;20207;-77
2021/05/26 16:24:33;;;;;;;3.75;2.35;;;15.50;99.90;;;;;;5069439;28;20206;-77
2021/05/26 16:27:00;;;;;;;2.72;2.42;;;15.60;99.90;;;;;;5083275;28;20202;-77
2021/05/26 16:29:27;;;;;;;1.88;1.77;;;15.70;99.90;;;;;;5072212;28;20221;-77
2021/05/26 16:31:55;;;;;;;1.70;1.35;;;15.60;99.90;;;;;;5067832;28;20614;-78
2021/05/26 16:34:21;;;;;;;3.25;1.83;;;15.60;99.90;;;;;;5066687;28;20227;-78
2021/05/26 16:36:50;;;;;;;1.63;1.40;;;15.70;99.90;;;;;;5067449;28;20239;-78
2021/05/26 16:39:20;;;;;;;1.90;1.80;;;15.70;99.90;;;;;;5076448;28;20199;-78
2021/05/26 16:41:47;;;;;;;4.30;1.80;;;15.70;99.90;;;;;;5072345;28;20214;-78
2021/05/26 16:44:13;;;;;;;1.85;1.60;;;15.80;99.90;;;;;;5078319;28;20213;-78
2021/05/26 16:46:39;;;;;;;9.80;2.00;;;15.70;99.90;;;;;;5079246;28;20210;-78
2021/05/26 16:49:09;;;;;;;4.03;1.35;;;15.70;99.90;;;;;;5068062;28;20203;-78
2021/05/26 16:51:36;;;;;;;4.68;1.80;;;15.70;99.90;;;;;;5072367;28;20202;-78
2021/05/26 16:54:03;;;;;;;2.35;1.95;;;15.60;99.90;;;;;;5078224;28;20259;-77
2021/05/26 16:56:33;;;;;;;7.55;1.80;;;15.50;99.90;;;;;;5069930;28;20200;-77
2021/05/26 16:59:14;;;;;;;1.83;1.67;;;15.40;99.90;;;;;;5078058;28;20205;-77
2021/05/26 17:01:41;;;;;;;1.92;1.63;;;15.50;99.90;;;;;;5072561;28;20231;-77
2021/05/26 17:04:09;;;;;;;2.17;1.45;;;15.50;99.90;;;;;;5072464;28;20248;-78
2021/05/26 17:06:35;;;;;;;4.80;1.63;;;15.50;99.90;;;;;;5078283;28;20206;-77
2021/05/26 17:09:04;;;;;;;2.83;1.85;;;15.60;99.90;;;;;;5075139;28;20210;-77
2021/05/26 17:11:32;;;;;;;1.88;1.77;;;15.50;99.90;;;;;;5078353;28;20584;-77
2021/05/26 17:13:58;;;;;;;3.20;2.28;;;15.50;99.90;;;;;;5065441;28;20701;-77
2021/05/26 17:16:26;;;;;;;3.10;1.83;;;15.50;99.90;;;;;;5077641;28;20232;-77
2021/05/26 17:18:53;;;;;;;5.60;2.08;;;15.50;99.90;;;;;;5082204;28;20198;-77
2021/05/26 17:21:19;;;;;;;3.00;1.90;;;15.40;99.90;;;;;;5074882;28;20206;-77
2021/05/26 17:23:49;;;;;;;4.10;2.20;;;15.40;99.90;;;;;;5074537;28;20686;-77
2021/05/26 17:26:16;;;;;;;2.28;1.95;;;15.30;99.90;;;;;;5074476;28;20201;-77
2021/05/26 17:28:43;;;;;;;2.67;1.83;;;15.20;99.90;;;;;;5076601;28;20205;-77
2021/05/26 17:31:10;;;;;;;2.22;1.75;;;15.20;99.90;;;;;;5079552;28;20201;-77
2021/05/26 17:33:38;;;;;;;2.92;1.60;;;15.10;99.90;;;;;;5076515;28;20254;-77
2021/05/26 17:36:05;;;;;;;1.92;1.60;;;15.00;99.90;;;;;;5072398;28;20204;-77
2021/05/26 17:38:32;;;;;;;1.77;1.67;;;15.00;99.90;;;;;;5075917;28;20575;-77
2021/05/26 17:40:58;;;;;;;4.72;2.13;;;15.00;99.90;;;;;;5068522;28;20206;-78
2021/05/26 17:43:25;;;;;;;1.92;1.35;;;15.00;99.90;;;;;;5080052;28;20204;-77
2021/05/26 17:45:52;;;;;;;3.78;2.03;;;14.90;99.90;;;;;;5073073;28;20255;-77
2021/05/26 17:48:19;;;;;;;2.15;1.85;;;14.90;99.90;;;;;;5071263;28;20199;-77
2021/05/26 17:50:46;;;;;;;3.67;2.05;;;15.00;99.90;;;;;;5077670;28;20214;-77
2021/05/26 17:53:12;;;;;;;3.40;1.92;;;15.10;99.90;;;;;;5076552;28;20204;-77
2021/05/26 17:55:39;;;;;;;3.42;2.38;;;15.00;99.90;;;;;;5075685;28;20198;-77
2021/05/26 17:58:07;;;;;;;5.57;1.55;;;15.10;99.90;;;;;;5072482;28;20202;-77
2021/05/26 18:00:37;;;;;;;2.97;1.70;;;15.10;99.90;;;;;;5074547;28;20210;-77
2021/05/26 18:03:04;;;;;;;2.92;1.95;;;15.20;99.90;;;;;;5070751;28;20227;-77
2021/05/26 18:05:32;;;;;;;1.85;1.65;;;15.10;99.90;;;;;;5071148;28;20227;-76
2021/05/26 18:08:00;;;;;;;4.75;2.00;;;15.00;99.90;;;;;;5071049;28;20659;-77
2021/05/26 18:10:29;;;;;;;5.43;2.38;;;15.00;99.90;;;;;;5078534;28;20234;-77
2021/05/26 18:12:55;;;;;;;2.30;2.05;;;15.00;99.90;;;;;;5080802;28;20200;-77
2021/05/26 18:15:22;;;;;;;2.13;1.92;;;14.90;99.90;;;;;;5075666;28;20226;-77
2021/05/26 18:17:49;;;;;;;1.90;1.67;;;15.00;99.90;;;;;;5073117;28;20211;-76
2021/05/26 18:20:19;;;;;;;5.80;2.42;;;15.00;99.90;;;;;;5077160;28;20198;-77
2021/05/26 18:22:47;;;;;;;1.80;1.55;;;14.90;99.90;;;;;;5065373;28;20216;-76
2021/05/26 18:25:16;;;;;;;1.95;1.70;;;14.90;99.90;;;;;;5062262;28;20203;-76
2021/05/26 18:27:42;;;;;;;2.45;1.42;;;14.90;99.90;;;;;;5072342;28;20701;-76
2021/05/26 18:30:12;;;;;;;2.97;1.90;;;14.90;99.90;;;;;;5076638;28;20193;-77
2021/05/26 18:32:39;;;;;;;2.50;1.83;;;14.80;99.90;;;;;;5078341;28;20207;-76
2021/05/26 18:35:06;;;;;;;2.42;2.17;;;14.80;99.90;;;;;;5076326;28;20233;-76
2021/05/26 18:37:34;;;;;;;4.97;1.90;;;14.80;99.90;;;;;;5066006;28;20211;-77
2021/05/26 18:40:00;;;;;;;8.70;3.78;;;14.70;99.90;;;;;;5068938;28;20219;-77
2021/05/26 18:42:27;;;;;;;2.58;1.90;;;14.70;99.90;;;;;;5084490;28;20204;-76
2021/05/26 18:44:54;;;;;;;2.33;2.22;;;14.80;99.90;;;;;;5077273;28;20207;-77
2021/05/26 18:47:20;;;;;;;2.95;2.00;;;14.70;99.90;;;;;;5071175;28;20206;-76
2021/05/26 18:49:50;;;;;;;3.28;2.35;;;14.60;99.90;;;;;;5061495;28;20239;-76
2021/05/26 18:52:17;;;;;;;3.72;2.15;;;14.60;99.90;;;;;;5065179;28;20203;-76
2021/05/26 18:54:46;;;;;;;5.65;2.20;;;14.50;99.90;;;;;;5063785;28;20230;-76
2021/05/26 18:57:13;;;;;;;4.50;2.40;;;14.50;99.90;;;;;;5056144;28;20203;-76
2021/05/26 18:59:40;;;;;;;2.30;2.20;;;14.30;99.90;;;;;;5057193;28;20212;-76
2021/05/26 19:02:06;;;;;;;2.55;2.35;;;14.20;99.90;;;;;;5057316;28;20200;-77
2021/05/26 19:04:34;;;;;;;3.00;2.70;;;14.30;99.90;;;;;;5057310;28;20236;-77
2021/05/26 19:07:01;;;;;;;2.25;2.05;;;14.30;99.90;;;;;;5049356;28;20201;-77
2021/05/26 19:09:27;;;;;;;3.97;2.50;;;14.30;99.90;;;;;;5056831;28;20208;-76
2021/05/26 19:12:02;;;;;;;3.83;2.67;;;14.30;99.90;;;;;;5064588;28;20208;-77
2021/05/26 19:14:29;;;;;;;4.72;2.28;;;14.30;99.90;;;;;;5063552;28;20345;-77
2021/05/26 19:16:55;;;;;;;3.10;2.50;;;14.20;99.90;;;;;;5053259;28;20653;-76
2021/05/26 19:19:23;;;;;;;2.60;2.40;;;14.30;99.90;;;;;;5062627;28;20211;-76
2021/05/26 19:21:50;;;;;;;2.70;2.50;;;14.30;99.90;;;;;;5063631;28;20215;-76
2021/05/26 19:24:17;;;;;;;4.55;2.83;;;14.30;99.90;;;;;;5067522;28;20207;-77
2021/05/26 19:26:44;;;;;;;3.05;2.70;;;14.30;99.90;;;;;;5061995;28;20202;-76
2021/05/26 19:29:12;;;;;;;3.60;2.80;;;14.30;99.90;;;;;;5055933;28;20227;-76
2021/05/26 19:31:38;;;;;;;3.10;2.65;;;14.30;99.90;;;;;;5060584;28;20209;-76
2021/05/26 19:34:05;;;;;;;4.43;2.70;;;14.20;99.90;;;;;;5055116;28;20244;-76
2021/05/26 19:36:32;;;;;;;4.82;3.30;;;14.20;99.90;;;;;;5056644;28;20207;-77
2021/05/26 19:38:59;;;;;;;3.30;3.00;;;14.10;99.90;;;;;;5067267;28;20625;-76
2021/05/26 19:41:26;;;;;;;4.68;3.00;;;14.10;99.90;;;;;;5061387;28;20198;-76
2021/05/26 19:43:52;;;;;;;4.78;2.97;;;14.00;99.90;;;;;;5053666;28;20208;-76
2021/05/26 19:46:21;;;;;;;5.93;4.15;;;13.90;99.90;;;;;;5061414;28;20206;-77
2021/05/26 19:48:48;;;;;;;4.75;3.53;;;13.80;99.90;;;;;;5057125;28;20209;-77
2021/05/26 19:51:14;;;;;;;5.50;4.00;;;13.80;99.90;;;;;;5058529;28;20455;-77
2021/05/26 19:53:41;;;;;;;5.20;4.35;;;13.70;99.90;;;;;;5048459;28;20516;-77
2021/05/26 19:56:07;;;;;;;6.63;3.90;;;13.60;99.90;;;;;;5059539;28;20208;-77
2021/05/26 19:58:37;;;;;;;4.00;3.33;;;13.60;99.90;;;;;;5060981;28;20209;-77
2021/05/26 20:01:04;;;;;;;5.45;3.88;;;13.50;99.90;;;;;;5061340;28;20209;-76
2021/05/26 20:03:32;;;;;;;6.20;4.55;;;13.50;99.90;;;;;;5050563;28;20233;-76
2021/05/26 20:06:00;;;;;;;7.43;4.65;;;13.40;99.90;;;;;;5052696;28;20209;-76
2021/05/26 20:08:26;;;;;;;5.22;4.20;;;13.40;99.90;;;;;;5058021;28;20219;-77
2021/05/26 20:10:54;;;;;;;9.35;4.30;;;13.40;99.90;;;;;;5059234;28;20210;-76
2021/05/26 20:13:22;;;;;;;5.13;4.63;;;13.40;99.90;;;;;;5066377;28;21175;-77
2021/05/26 20:15:49;;;;;;;7.72;4.30;;;13.40;99.90;;;;;;5059279;28;20206;-76
2021/05/26 20:18:15;;;;;;;6.85;4.88;;;13.40;99.90;;;;;;5056003;28;20202;-77
2021/05/26 20:20:44;;;;;;;4.68;4.28;;;13.40;99.90;;;;;;5065568;28;20198;-76
2021/05/26 20:23:11;;;;;;;5.70;3.70;;;13.30;99.90;;;;;;5054948;28;20504;-77
2021/05/26 20:25:37;;;;;;;6.68;3.63;;;13.30;99.90;;;;;;5047803;28;20228;-77
2021/05/26 20:28:04;;;;;;;5.07;4.57;;;13.20;99.90;;;;;;5054766;28;20208;-77
2021/05/26 20:30:31;;;;;;;5.80;4.13;;;13.10;99.90;;;;;;5050736;28;20216;-77
2021/05/26 20:32:57;;;;;;;8.50;4.50;;;13.20;99.90;;;;;;5056408;28;20198;-76
2021/05/26 20:35:24;;;;;;;8.25;4.38;;;13.20;99.90;;;;;;5056919;28;20230;-77
2021/05/26 20:37:51;;;;;;;6.45;4.57;;;13.20;99.90;;;;;;5048476;28;20225;-77
2021/05/26 20:40:18;;;;;;;10.98;4.10;;;13.20;99.90;;;;;;5054231;28;20209;-77
2021/05/26 20:42:44;;;;;;;4.63;4.07;;;13.30;99.90;;;;;;5053065;28;20212;-77
2021/05/26 20:45:12;;;;;;;5.90;5.10;;;13.30;99.90;;;;;;5056482;28;20201;-76
2021/05/26 20:47:40;;;;;;;7.63;4.93;;;13.40;99.90;;;;;;5051435;28;20218;-77
2021/05/26 20:50:07;;;;;;;7.88;5.30;;;13.30;99.90;;;;;;5059516;28;20208;-76
2021/05/26 20:52:34;;;;;;;7.32;6.63;;;13.30;99.90;;;;;;5064372;28;20235;-77
2021/05/26 20:55:02;;;;;;;7.88;5.38;;;13.30;99.90;;;;;;5059007;28;20236;-76
2021/05/26 20:57:29;;;;;;;13.48;6.35;;;13.20;99.90;;;;;;5051196;28;20202;-77
2021/05/26 20:59:55;;;;;;;9.40;5.80;;;13.30;99.90;;;;;;5048824;28;20760;-76
2021/05/26 21:02:21;;;;;;;11.60;6.53;;;13.20;99.90;;;;;;5060828;28;20213;-76
2021/05/26 21:04:48;;;;;;;7.78;5.70;;;13.20;99.90;;;;;;5061055;28;20268;-76
2021/05/26 21:07:14;;;;;;;11.52;6.80;;;13.10;99.90;;;;;;5053007;28;20229;-76
2021/05/26 21:09:41;;;;;;;9.73;6.50;;;13.00;99.90;;;;;;5054091;28;20209;-77
2021/05/26 21:12:09;;;;;;;11.40;6.93;;;12.90;99.90;;;;;;5061722;28;20197;-76
2021/05/26 21:14:36;;;;;;;12.10;6.85;;;12.90;99.90;;;;;;5051785;28;20224;-77
2021/05/26 21:17:07;;;;;;;16.65;7.15;;;12.90;99.90;;;;;;5053282;28;20209;-77
2021/05/26 21:19:33;;;;;;;9.65;6.88;;;13.00;99.90;;;;;;5062052;28;20223;-77
2021/05/26 21:22:00;;;;;;;10.57;6.47;;;13.00;99.90;;;;;;5058489;28;20202;-77
2021/05/26 21:24:27;;;;;;;10.18;7.07;;;13.10;99.90;;;;;;5052128;28;20199;-76
2021/05/26 21:26:53;;;;;;;17.42;6.95;;;13.20;99.90;;;;;;5062944;28;20236;-77
2021/05/26 21:29:21;;;;;;;14.85;7.32;;;13.10;99.90;;;;;;5050546;28;20207;-77
2021/05/26 21:31:47;;;;;;;11.32;8.23;;;13.10;99.90;;;;;;5053467;28;20206;-77
2021/05/26 21:34:14;;;;;;;10.70;7.47;;;13.00;99.90;;;;;;5052065;28;20237;-77
2021/05/26 21:36:40;;;;;;;11.18;7.72;;;12.90;99.90;;;;;;5054082;28;20252;-77
2021/05/26 21:39:07;;;;;;;15.63;7.70;;;12.90;99.90;;;;;;5056206;28;20214;-77
2021/05/26 21:41:34;;;;;;;12.07;8.05;;;12.90;99.90;;;;;;5065053;28;20205;-77
2021/05/26 21:44:00;;;;;;;14.30;8.02;;;13.00;99.90;;;;;;5054477;28;20202;-76
2021/05/26 21:46:29;;;;;;;14.32;7.47;;;12.90;99.90;;;;;;5047171;28;20199;-77
2021/05/26 21:48:56;;;;;;;7.63;6.43;;;13.00;99.90;;;;;;5047841;28;20207;-76
2021/05/26 21:51:22;;;;;;;11.68;7.38;;;13.00;99.90;;;;;;5060348;28;20197;-77
2021/05/26 21:53:49;;;;;;;13.85;7.15;;;13.00;99.90;;;;;;5058480;28;20221;-77
2021/05/26 21:56:15;;;;;;;8.05;6.47;;;12.90;99.90;;;;;;5057751;28;20207;-76
2021/05/26 21:58:42;;;;;;;7.95;6.57;;;12.90;99.90;;;;;;5049722;28;20210;-77
2021/05/26 22:01:08;;;;;;;9.63;6.32;;;12.90;99.90;;;;;;5061669;28;20260;-78
2021/05/26 22:03:36;;;;;;;9.85;7.05;;;13.00;99.90;;;;;;5062659;28;20228;-78
2021/05/26 22:06:02;;;;;;;9.23;6.63;;;12.90;99.90;;;;;;5053120;28;20201;-78
2021/05/26 22:08:29;;;;;;;8.38;6.40;;;12.90;99.90;;;;;;5055342;28;20556;-79
2021/05/26 22:10:55;;;;;;;9.88;7.18;;;12.80;99.90;;;;;;5051983;28;20205;-78
2021/05/26 22:13:21;;;;;;;10.90;6.60;;;12.80;99.90;;;;;;5054232;28;20217;-78
2021/05/26 22:15:49;;;;;;;8.40;6.15;;;12.80;99.90;;;;;;5047444;28;20236;-77
2021/05/26 22:18:15;;;;;;;13.80;6.53;;;12.80;99.90;;;;;;5047451;28;20203;-77
2021/05/26 22:20:42;;;;;;;8.73;7.22;;;12.90;99.90;;;;;;5048558;28;20210;-76
2021/05/26 22:23:09;;;;;;;8.80;7.20;;;12.90;99.90;;;;;;5064504;28;20198;-76
2021/05/26 22:25:35;;;;;;;10.07;7.13;;;12.90;99.90;;;;;;5064576;28;20203;-76
2021/05/26 22:28:02;;;;;;;11.63;6.80;;;12.90;99.90;;;;;;5056661;28;20229;-76
2021/05/26 22:30:29;;;;;;;17.80;7.28;;;12.90;99.90;;;;;;5047572;28;20189;-76
2021/05/26 22:32:56;;;;;;;9.18;7.03;;;12.90;99.90;;;;;;5052486;28;20197;-76
2021/05/26 22:35:22;;;;;;;11.35;7.07;;;12.90;99.90;;;;;;5056543;28;20225;-76
2021/05/26 22:37:51;;;;;;;8.73;6.68;;;13.00;99.90;;;;;;5056721;28;20649;-76
2021/05/26 22:40:19;;;;;;;9.70;6.78;;;12.90;99.90;;;;;;5043370;28;20229;-76
2021/05/26 22:42:47;;;;;;;8.07;6.28;;;12.90;99.90;;;;;;5054295;28;20278;-76
2021/05/26 22:45:17;;;;;;;7.70;6.90;;;13.00;99.90;;;;;;5046388;28;20210;-76
2021/05/26 22:47:44;;;;;;;7.70;7.00;;;13.00;99.90;;;;;;5055415;28;20206;-76
2021/05/26 22:50:14;;;;;;;10.65;7.10;;;13.00;99.90;;;;;;5064074;28;20208;-76
2021/05/26 22:52:41;;;;;;;13.52;7.25;;;13.00;99.90;;;;;;5058498;28;20201;-76
2021/05/26 22:55:11;;;;;;;8.40;7.60;;;12.90;99.90;;;;;;5062000;28;20223;-76
2021/05/26 22:57:38;;;;;;;12.68;7.88;;;13.00;99.90;;;;;;5057516;28;20205;-76
2021/05/26 23:00:07;;;;;;;10.82;7.30;;;13.10;99.90;;;;;;5059952;28;20232;-76
2021/05/26 23:02:33;;;;;;;8.43;6.65;;;13.00;99.90;;;;;;5051164;28;20196;-76
2021/05/26 23:04:59;;;;;;;9.48;8.55;;;13.10;99.90;;;;;;5048815;28;20207;-76
2021/05/26 23:07:26;;;;;;;9.82;7.05;;;13.00;99.90;;;;;;5063116;28;20205;-76
2021/05/26 23:09:52;;;;;;;18.10;7.80;;;13.00;99.90;;;;;;5056180;28;20198;-76